createdAt,value
2019-02-12T00:00:53.297Z,99.99
2019-02-12T00:01:53.228Z,99.99
2019-02-12T00:02:53.159Z,99.99
2019-02-12T00:03:53.090Z,99.99
2019-02-12T00:04:53.022Z,99.99
2019-02-12T00:05:52.954Z,99.99
2019-02-12T00:06:52.900Z,99.99
2019-02-12T00:07:52.817Z,99.99
2019-02-12T00:08:52.749Z,99.99
2019-02-12T00:09:52.685Z,99.99
2019-02-12T00:10:52.650Z,99.99
2019-02-12T00:11:52.562Z,99.99
2019-02-12T00:12:52.479Z,99.99
2019-02-12T00:13:52.410Z,99.99
2019-02-12T00:14:52.349Z,99.99
2019-02-12T00:15:52.285Z,99.99
2019-02-12T00:16:52.201Z,99.99
2019-02-12T00:17:52.134Z,99.99
2019-02-12T00:18:52.065Z,99.99
2019-02-12T00:19:51.997Z,99.99
2019-02-12T00:20:51.927Z,99.99
2019-02-12T00:21:51.862Z,99.99
2019-02-12T00:22:51.790Z,99.99
2019-02-12T00:23:51.736Z,99.99
2019-02-12T00:24:51.656Z,99.99
2019-02-12T00:25:51.585Z,99.99
2019-02-12T00:26:51.515Z,99.99
2019-02-12T00:27:51.454Z,99.99
2019-02-12T00:28:51.385Z,99.99
2019-02-12T00:29:51.321Z,99.99
2019-02-12T00:30:51.255Z,99.99
2019-02-12T00:31:51.177Z,99.99
2019-02-12T00:32:51.107Z,99.99
2019-02-12T00:33:51.038Z,99.99
2019-02-12T00:34:50.995Z,99.99
2019-02-12T00:35:50.899Z,99.99
2019-02-12T00:36:50.833Z,99.99
2019-02-12T00:37:50.765Z,99.99
2019-02-12T00:38:50.695Z,99.99
2019-02-12T00:39:50.620Z,99.99
2019-02-12T00:40:50.563Z,99.99
2019-02-12T00:41:50.487Z,99.99
2019-02-12T00:42:50.431Z,99.99
2019-02-12T00:43:50.347Z,99.99
2019-02-12T00:44:50.283Z,99.99
2019-02-12T00:45:50.207Z,99.99
2019-02-12T00:46:50.151Z,99.99
2019-02-12T00:47:50.086Z,99.99
2019-02-12T00:48:50.011Z,99.99
2019-02-12T00:49:49.966Z,99.99
2019-02-12T00:50:49.871Z,99.99
2019-02-12T00:51:49.812Z,99.99
2019-02-12T00:52:49.735Z,99.99
2019-02-12T00:53:49.670Z,99.99
2019-02-12T00:54:49.610Z,99.99
2019-02-12T00:55:49.530Z,99.99
2019-02-12T00:56:49.463Z,99.99
2019-02-12T00:57:49.394Z,99.99
2019-02-12T00:58:49.321Z,99.99
2019-02-12T00:59:49.267Z,99.99
2019-02-12T01:00:49.187Z,99.99
2019-02-12T01:01:49.118Z,99.99
2019-02-12T01:02:49.046Z,99.99
2019-02-12T01:03:48.981Z,99.99
2019-02-12T01:04:48.912Z,99.99
2019-02-12T01:05:48.849Z,99.99
2019-02-12T01:06:48.796Z,99.99
2019-02-12T01:07:48.725Z,99.99
2019-02-12T01:08:48.644Z,99.99
2019-02-12T01:09:48.569Z,99.99
2019-02-12T01:10:48.503Z,99.99
2019-02-12T01:11:48.438Z,99.99
2019-02-12T01:12:48.376Z,99.99
2019-02-12T01:13:48.295Z,99.99
2019-02-12T01:14:48.229Z,99.99
2019-02-12T01:15:48.162Z,99.99
2019-02-12T01:16:48.096Z,99.99
2019-02-12T01:17:48.021Z,99.99
2019-02-12T01:18:47.953Z,99.99
2019-02-12T01:19:47.884Z,99.99
2019-02-12T01:20:47.816Z,99.99
2019-02-12T01:21:47.752Z,99.99
2019-02-12T01:22:47.677Z,99.99
2019-02-12T01:23:47.610Z,99.99
2019-02-12T01:24:47.545Z,99.99
2019-02-12T01:25:47.480Z,99.99
2019-02-12T01:26:47.410Z,99.99
2019-02-12T01:27:47.371Z,99.99
2019-02-12T01:28:47.321Z,99.99
2019-02-12T01:29:47.248Z,99.99
2019-02-12T01:30:47.135Z,99.99
2019-02-12T01:31:47.080Z,99.99
2019-02-12T01:32:46.994Z,99.99
2019-02-12T01:33:46.957Z,99.99
2019-02-12T01:34:46.860Z,99.99
2019-02-12T01:35:46.826Z,99.99
2019-02-12T01:36:46.724Z,99.99
2019-02-12T01:37:46.651Z,99.99
2019-02-12T01:38:46.585Z,99.99
2019-02-12T01:39:46.520Z,99.99
2019-02-12T01:40:46.447Z,99.99
2019-02-12T01:41:46.383Z,99.99
2019-02-12T01:42:46.310Z,99.99
2019-02-12T01:43:46.244Z,99.99
2019-02-12T01:44:46.178Z,99.99
2019-02-12T01:45:46.123Z,99.99
2019-02-12T01:46:46.035Z,99.99
2019-02-12T01:47:45.988Z,99.99
2019-02-12T01:48:45.898Z,99.99
2019-02-12T01:49:45.831Z,99.99
2019-02-12T01:50:45.785Z,99.99
2019-02-12T01:51:45.698Z,99.99
2019-02-12T01:52:45.626Z,99.99
2019-02-12T01:53:45.556Z,99.99
2019-02-12T01:54:45.498Z,99.99
2019-02-12T01:55:45.416Z,99.99
2019-02-12T01:56:45.348Z,99.99
2019-02-12T01:57:45.283Z,99.99
2019-02-12T01:58:45.213Z,99.99
2019-02-12T01:59:45.144Z,99.99
2019-02-12T02:00:45.078Z,99.99
2019-02-12T02:01:45.011Z,99.99
2019-02-12T02:02:44.941Z,99.99
2019-02-12T02:03:44.877Z,99.99
2019-02-12T02:04:44.809Z,99.99
2019-02-12T02:05:44.755Z,99.99
2019-02-12T02:06:44.667Z,99.99
2019-02-12T02:07:44.597Z,99.99
2019-02-12T02:08:44.529Z,99.99
2019-02-12T02:09:44.481Z,99.99
2019-02-12T02:10:44.390Z,99.99
2019-02-12T02:11:44.320Z,99.99
2019-02-12T02:12:44.262Z,99.99
2019-02-12T02:13:44.201Z,99.99
2019-02-12T02:14:44.118Z,99.99
2019-02-12T02:15:44.047Z,99.99
2019-02-12T02:16:44.001Z,99.99
2019-02-12T02:17:43.913Z,99.99
2019-02-12T02:18:43.845Z,99.99
2019-02-12T02:19:43.776Z,99.99
2019-02-12T02:20:43.714Z,99.99
2019-02-12T02:21:44.328Z,99.99
2019-02-12T02:22:43.574Z,99.99
2019-02-12T02:23:43.503Z,99.99
2019-02-12T02:24:43.452Z,99.99
2019-02-12T02:25:43.380Z,99.99
2019-02-12T02:26:43.296Z,99.99
2019-02-12T02:27:43.228Z,99.99
2019-02-12T02:28:43.166Z,99.99
2019-02-12T02:29:43.087Z,99.99
2019-02-12T02:30:43.021Z,99.99
2019-02-12T02:31:42.955Z,99.99
2019-02-12T02:32:42.898Z,99.99
2019-02-12T02:33:42.841Z,99.99
2019-02-12T02:34:42.747Z,99.99
2019-02-12T02:35:42.685Z,99.99
2019-02-12T02:36:42.623Z,99.99
2019-02-12T02:37:42.539Z,99.99
2019-02-12T02:38:42.472Z,99.99
2019-02-12T02:39:42.402Z,99.99
2019-02-12T02:40:42.349Z,99.99
2019-02-12T02:41:42.272Z,99.99
2019-02-12T02:42:42.197Z,99.99
2019-02-12T02:43:42.130Z,99.99
2019-02-12T02:44:42.058Z,99.99
2019-02-12T02:45:41.993Z,99.99
2019-02-12T02:46:41.936Z,99.99
2019-02-12T02:47:41.878Z,99.99
2019-02-12T02:48:41.785Z,99.99
2019-02-12T02:49:41.716Z,99.99
2019-02-12T02:50:41.648Z,99.99
2019-02-12T02:51:41.587Z,99.99
2019-02-12T02:52:41.512Z,99.99
2019-02-12T02:53:41.442Z,99.99
2019-02-12T02:54:41.400Z,99.99
2019-02-12T02:55:41.309Z,99.99
2019-02-12T02:56:41.232Z,99.99
2019-02-12T02:57:41.173Z,99.99
2019-02-12T02:58:41.103Z,99.99
2019-02-12T02:59:41.041Z,99.99
2019-02-12T03:00:40.962Z,99.99
2019-02-12T03:01:40.899Z,99.99
2019-02-12T03:02:40.842Z,99.99
2019-02-12T03:03:40.759Z,99.99
2019-02-12T03:04:40.767Z,99.99
2019-02-12T03:05:40.632Z,99.99
2019-02-12T03:06:40.569Z,99.99
2019-02-12T03:07:40.493Z,99.99
2019-02-12T03:08:40.417Z,99.99
2019-02-12T03:09:40.347Z,99.99
2019-02-12T03:10:40.291Z,99.99
2019-02-12T03:11:40.215Z,99.99
2019-02-12T03:12:40.141Z,99.99
2019-02-12T03:13:40.076Z,99.99
2019-02-12T03:14:40.015Z,99.99
2019-02-12T03:15:39.935Z,99.99
2019-02-12T03:16:39.872Z,99.99
2019-02-12T03:17:39.837Z,99.99
2019-02-12T03:18:39.731Z,99.99
2019-02-12T03:19:39.657Z,99.99
2019-02-12T03:20:39.593Z,99.99
2019-02-12T03:21:39.524Z,99.99
2019-02-12T03:22:39.457Z,99.99
2019-02-12T03:23:39.390Z,99.99
2019-02-12T03:24:39.338Z,99.99
2019-02-12T03:25:39.278Z,99.99
2019-02-12T03:26:39.182Z,99.99
2019-02-12T03:27:39.117Z,99.99
2019-02-12T03:28:39.049Z,99.99
2019-02-12T03:29:38.997Z,99.99
2019-02-12T03:30:38.913Z,99.99
2019-02-12T03:31:38.843Z,99.99
2019-02-12T03:32:38.774Z,99.99
2019-02-12T03:33:38.710Z,99.99
2019-02-12T03:34:38.630Z,99.99
2019-02-12T03:35:38.570Z,99.99
2019-02-12T03:36:38.501Z,99.99
2019-02-12T03:37:38.430Z,99.99
2019-02-12T03:38:38.367Z,99.99
2019-02-12T03:39:38.293Z,99.99
2019-02-12T03:40:38.238Z,99.99
2019-02-12T03:41:38.155Z,99.99
2019-02-12T03:42:38.089Z,99.99
2019-02-12T03:43:38.040Z,99.99
2019-02-12T03:44:37.954Z,99.99
2019-02-12T03:45:37.889Z,99.99
2019-02-12T03:46:37.812Z,99.99
2019-02-12T03:47:37.744Z,99.99
2019-02-12T03:48:37.689Z,99.99
2019-02-12T03:49:37.603Z,99.99
2019-02-12T03:50:37.537Z,99.99
2019-02-12T03:51:37.473Z,99.99
2019-02-12T03:52:37.406Z,99.99
2019-02-12T03:53:37.328Z,99.99
2019-02-12T03:54:37.265Z,99.99
2019-02-12T03:55:37.203Z,99.99
2019-02-12T03:56:37.133Z,99.99
2019-02-12T03:57:37.057Z,99.99
2019-02-12T03:58:36.989Z,99.99
2019-02-12T03:59:36.921Z,99.99
2019-02-12T04:00:36.851Z,99.99
2019-02-12T04:01:36.789Z,99.99
2019-02-12T04:02:36.724Z,99.99
2019-02-12T04:03:36.809Z,99.99
2019-02-12T04:04:36.583Z,99.99
2019-02-12T04:05:36.510Z,99.99
2019-02-12T04:06:36.441Z,99.99
2019-02-12T04:07:36.375Z,99.99
2019-02-12T04:08:36.301Z,99.99
2019-02-12T04:09:36.235Z,99.99
2019-02-12T04:10:36.166Z,99.99
2019-02-12T04:11:36.106Z,99.99
2019-02-12T04:12:36.025Z,99.99
2019-02-12T04:13:35.959Z,99.99
2019-02-12T04:14:35.893Z,99.99
2019-02-12T04:15:35.826Z,99.99
2019-02-12T04:16:35.776Z,99.99
2019-02-12T04:17:35.687Z,99.99
2019-02-12T04:18:35.619Z,99.99
2019-02-12T04:19:35.548Z,99.99
2019-02-12T04:20:35.493Z,99.99
2019-02-12T04:21:35.412Z,99.99
2019-02-12T04:22:35.345Z,99.99
2019-02-12T04:23:35.274Z,99.99
2019-02-12T04:24:35.210Z,99.99
2019-02-12T04:25:35.138Z,99.99
2019-02-12T04:26:35.087Z,99.99
2019-02-12T04:27:35.002Z,99.99
2019-02-12T04:28:34.933Z,99.99
2019-02-12T04:29:34.864Z,99.99
2019-02-12T04:30:34.813Z,99.99
2019-02-12T04:31:34.723Z,99.99
2019-02-12T04:32:34.658Z,99.99
2019-02-12T04:33:34.587Z,99.99
2019-02-12T04:34:34.527Z,99.99
2019-02-12T04:35:34.460Z,99.99
2019-02-12T04:36:34.383Z,99.99
2019-02-12T04:37:34.317Z,99.99
2019-02-12T04:38:34.256Z,99.99
2019-02-12T04:39:34.172Z,99.99
2019-02-12T04:40:34.115Z,99.99
2019-02-12T04:41:34.040Z,99.99
2019-02-12T04:42:33.991Z,99.99
2019-02-12T04:43:33.905Z,99.99
2019-02-12T04:44:33.861Z,99.99
2019-02-12T04:45:33.782Z,99.99
2019-02-12T04:46:33.700Z,99.99
2019-02-12T04:47:33.623Z,99.99
2019-02-12T04:48:33.568Z,99.99
2019-02-12T04:49:33.492Z,99.99
2019-02-12T04:50:33.419Z,99.99
2019-02-12T04:51:33.348Z,99.99
2019-02-12T04:52:33.284Z,99.99
2019-02-12T04:53:33.223Z,99.99
2019-02-12T04:54:33.143Z,99.99
2019-02-12T04:55:33.077Z,99.99
2019-02-12T04:56:33.008Z,99.99
2019-02-12T04:57:32.947Z,99.99
2019-02-12T04:58:32.870Z,99.99
2019-02-12T04:59:32.799Z,99.99
2019-02-12T05:00:32.748Z,99.99
2019-02-12T05:01:32.670Z,99.99
2019-02-12T05:02:32.593Z,99.99
2019-02-12T05:03:32.529Z,99.99
2019-02-12T05:04:32.466Z,99.99
2019-02-12T05:05:32.390Z,99.99
2019-02-12T05:06:32.323Z,99.99
2019-02-12T05:07:32.273Z,99.99
2019-02-12T05:08:32.201Z,99.99
2019-02-12T05:09:32.121Z,99.99
2019-02-12T05:10:32.047Z,99.99
2019-02-12T05:11:31.975Z,99.99
2019-02-12T05:12:31.926Z,99.99
2019-02-12T05:13:31.836Z,99.99
2019-02-12T05:14:31.768Z,99.99
2019-02-12T05:15:31.698Z,99.99
2019-02-12T05:16:31.648Z,99.99
2019-02-12T05:17:31.561Z,99.99
2019-02-12T05:18:31.493Z,99.99
2019-02-12T05:19:31.424Z,99.99
2019-02-12T05:20:31.382Z,99.99
2019-02-12T05:21:31.282Z,99.99
2019-02-12T05:22:31.218Z,99.99
2019-02-12T05:23:31.150Z,99.99
2019-02-12T05:24:31.083Z,99.99
2019-02-12T05:25:31.007Z,99.99
2019-02-12T05:26:30.954Z,99.99
2019-02-12T05:27:30.873Z,99.99
2019-02-12T05:28:30.808Z,99.99
2019-02-12T05:29:30.732Z,99.99
2019-02-12T05:30:30.719Z,99.99
2019-02-12T05:31:30.598Z,99.99
2019-02-12T05:32:30.528Z,99.99
2019-02-12T05:33:30.465Z,99.99
2019-02-12T05:34:30.414Z,99.99
2019-02-12T05:35:30.332Z,99.99
2019-02-12T05:36:30.283Z,99.99
2019-02-12T05:37:30.190Z,99.99
2019-02-12T05:38:30.132Z,99.99
2019-02-12T05:39:30.057Z,99.99
2019-02-12T05:40:29.979Z,99.99
2019-02-12T05:41:29.907Z,99.99
2019-02-12T05:42:29.838Z,99.99
2019-02-12T05:43:29.791Z,99.99
2019-02-12T05:44:29.703Z,99.99
2019-02-12T05:45:29.633Z,99.99
2019-02-12T05:46:29.605Z,99.99
2019-02-12T05:47:29.506Z,99.99
2019-02-12T05:48:29.445Z,99.99
2019-02-12T05:49:29.375Z,99.99
2019-02-12T05:50:29.288Z,99.99
2019-02-12T05:51:29.258Z,99.99
2019-02-12T05:52:29.160Z,99.99
2019-02-12T05:53:29.080Z,99.99
2019-02-12T05:54:29.018Z,99.99
2019-02-12T05:55:28.946Z,99.99
2019-02-12T05:56:28.883Z,99.99
2019-02-12T05:57:28.803Z,99.99
2019-02-12T05:58:28.744Z,99.99
2019-02-12T05:59:28.669Z,99.99
2019-02-12T06:00:28.605Z,99.99
2019-02-12T06:01:28.550Z,99.99
2019-02-12T06:02:28.464Z,99.99
2019-02-12T06:03:28.432Z,99.99
2019-02-12T06:04:28.341Z,99.99
2019-02-12T06:05:28.264Z,99.99
2019-02-12T06:06:28.200Z,99.99
2019-02-12T06:07:28.121Z,99.99
2019-02-12T06:08:28.049Z,99.99
2019-02-12T06:09:28.020Z,99.99
2019-02-12T06:10:27.912Z,99.99
2019-02-12T06:11:27.842Z,99.99
2019-02-12T06:12:27.777Z,99.99
2019-02-12T06:13:27.706Z,99.99
2019-02-12T06:14:27.805Z,99.99
2019-02-12T06:15:27.569Z,99.99
2019-02-12T06:16:27.511Z,99.99
2019-02-12T06:17:27.432Z,99.99
2019-02-12T06:18:27.376Z,99.99
2019-02-12T06:19:27.303Z,99.99
2019-02-12T06:20:27.227Z,99.99
2019-02-12T06:21:27.161Z,99.99
2019-02-12T06:22:27.135Z,99.99
2019-02-12T06:23:27.023Z,99.99
2019-02-12T06:24:26.977Z,99.99
2019-02-12T06:25:26.926Z,99.99
2019-02-12T06:26:26.816Z,99.99
2019-02-12T06:27:26.746Z,99.99
2019-02-12T06:28:26.676Z,99.99
2019-02-12T06:29:26.608Z,99.99
2019-02-12T06:30:26.620Z,99.99
2019-02-12T06:31:26.589Z,99.99
2019-02-12T06:32:26.410Z,99.99
2019-02-12T06:33:26.353Z,99.99
2019-02-12T06:34:26.281Z,99.99
2019-02-12T06:35:26.191Z,99.99
2019-02-12T06:36:26.132Z,99.99
2019-02-12T06:37:26.077Z,99.99
2019-02-12T06:38:25.983Z,99.99
2019-02-12T06:39:25.922Z,99.99
2019-02-12T06:40:25.854Z,99.99
2019-02-12T06:41:25.796Z,99.99
2019-02-12T06:42:25.734Z,99.99
2019-02-12T06:43:25.676Z,99.99
2019-02-12T06:44:25.594Z,99.99
2019-02-12T06:45:25.524Z,99.99
2019-02-12T06:46:25.442Z,99.99
2019-02-12T06:47:25.384Z,99.99
2019-02-12T06:48:25.313Z,99.99
2019-02-12T06:49:25.233Z,99.99
2019-02-12T06:50:25.167Z,99.99
2019-02-12T06:51:25.091Z,99.99
2019-02-12T06:52:25.044Z,99.99
2019-02-12T06:53:24.958Z,99.99
2019-02-12T06:54:24.911Z,99.99
2019-02-12T06:55:24.823Z,99.99
2019-02-12T06:56:24.783Z,99.99
2019-02-12T06:57:24.678Z,99.99
2019-02-12T06:58:24.613Z,99.99
2019-02-12T06:59:24.546Z,99.99
2019-02-12T07:00:24.487Z,99.99
2019-02-12T07:01:24.402Z,99.99
2019-02-12T07:02:24.338Z,99.99
2019-02-12T07:03:24.269Z,99.99
2019-02-12T07:04:24.205Z,99.99
2019-02-12T07:05:24.129Z,99.99
2019-02-12T07:06:24.061Z,99.99
2019-02-12T07:07:23.998Z,99.99
2019-02-12T07:08:23.926Z,99.99
2019-02-12T07:09:23.861Z,99.99
2019-02-12T07:10:23.795Z,99.99
2019-02-12T07:11:23.736Z,99.99
2019-02-12T07:12:23.655Z,99.99
2019-02-12T07:13:23.579Z,99.99
2019-02-12T07:14:23.521Z,99.99
2019-02-12T07:15:23.441Z,99.99
2019-02-12T07:16:23.373Z,99.99
2019-02-12T07:17:23.302Z,99.99
2019-02-12T07:18:23.233Z,99.99
2019-02-12T07:19:23.167Z,99.99
2019-02-12T07:20:23.141Z,99.99
2019-02-12T07:21:23.027Z,99.99
2019-02-12T07:22:22.973Z,99.99
2019-02-12T07:23:22.920Z,99.99
2019-02-12T07:24:22.818Z,99.99
2019-02-12T07:25:22.751Z,99.99
2019-02-12T07:26:22.681Z,99.99
2019-02-12T07:27:22.620Z,99.99
2019-02-12T07:28:22.546Z,99.99
2019-02-12T07:29:22.491Z,99.99
2019-02-12T07:30:22.407Z,99.99
2019-02-12T07:31:22.337Z,99.99
2019-02-12T07:32:22.270Z,99.99
2019-02-12T07:33:22.199Z,99.99
2019-02-12T07:34:22.151Z,99.99
2019-02-12T07:35:22.061Z,99.99
2019-02-12T07:36:21.988Z,99.99
2019-02-12T07:37:21.922Z,99.99
2019-02-12T07:38:21.856Z,99.99
2019-02-12T07:39:21.801Z,99.99
2019-02-12T07:40:21.740Z,99.99
2019-02-12T07:41:21.651Z,99.99
2019-02-12T07:42:21.602Z,99.99
2019-02-12T07:43:21.509Z,99.99
2019-02-12T07:44:21.442Z,99.99
2019-02-12T07:45:21.388Z,99.99
2019-02-12T07:46:21.320Z,99.99
2019-02-12T07:47:21.234Z,99.99
2019-02-12T07:48:21.178Z,99.99
2019-02-12T07:49:21.098Z,99.99
2019-02-12T07:50:21.034Z,99.99
2019-02-12T07:51:20.970Z,99.99
2019-02-12T07:52:20.896Z,99.99
2019-02-12T07:53:20.818Z,99.99
2019-02-12T07:54:20.765Z,99.99
2019-02-12T07:55:20.693Z,99.99
2019-02-12T07:56:20.617Z,99.99
2019-02-12T07:57:20.547Z,99.99
2019-02-12T07:58:20.488Z,99.99
2019-02-12T07:59:20.421Z,99.99
2019-02-12T08:00:20.341Z,99.99
2019-02-12T08:01:20.310Z,99.99
2019-02-12T08:02:20.221Z,99.99
2019-02-12T08:03:20.140Z,99.99
2019-02-12T08:04:20.087Z,99.99
2019-02-12T08:05:20.024Z,99.99
2019-02-12T08:06:19.936Z,99.99
2019-02-12T08:07:19.858Z,99.99
2019-02-12T08:08:19.790Z,99.99
2019-02-12T08:09:19.730Z,99.99
2019-02-12T08:10:19.668Z,99.99
2019-02-12T08:11:19.588Z,99.99
2019-02-12T08:12:19.519Z,99.99
2019-02-12T08:13:19.453Z,99.99
2019-02-12T08:14:19.399Z,99.99
2019-02-12T08:15:19.316Z,99.99
2019-02-12T08:16:19.247Z,99.99
2019-02-12T08:17:19.194Z,99.99
2019-02-12T08:18:19.105Z,99.99
2019-02-12T08:19:19.041Z,99.99
2019-02-12T08:20:18.973Z,99.99
2019-02-12T08:21:18.945Z,99.99
2019-02-12T08:22:18.855Z,99.99
2019-02-12T08:23:18.807Z,99.99
2019-02-12T08:24:18.741Z,99.99
2019-02-12T08:25:18.630Z,99.99
2019-02-12T08:26:18.561Z,99.99
2019-02-12T08:27:18.502Z,99.99
2019-02-12T08:28:18.434Z,99.99
2019-02-12T08:29:18.375Z,99.99
2019-02-12T08:30:18.290Z,99.99
2019-02-12T08:31:18.220Z,99.99
2019-02-12T08:32:18.168Z,99.99
2019-02-12T08:33:18.080Z,99.99
2019-02-12T08:34:18.014Z,99.99
2019-02-12T08:35:17.947Z,99.99
2019-02-12T08:36:17.878Z,99.99
2019-02-12T08:37:17.813Z,99.99
2019-02-12T08:38:17.737Z,99.99
2019-02-12T08:39:17.702Z,99.99
2019-02-12T08:40:17.607Z,99.99
2019-02-12T08:41:17.538Z,99.99
2019-02-12T08:42:17.508Z,99.99
2019-02-12T08:43:17.400Z,99.99
2019-02-12T08:44:17.335Z,99.99
2019-02-12T08:45:17.267Z,99.99
2019-02-12T08:46:17.208Z,99.99
2019-02-12T08:47:17.134Z,99.99
2019-02-12T08:48:17.055Z,99.99
2019-02-12T08:49:16.991Z,99.99
2019-02-12T08:50:18.364Z,99.99
2019-02-12T08:51:16.853Z,99.99
2019-02-12T08:52:16.805Z,99.99
2019-02-12T08:53:16.716Z,99.99
2019-02-12T08:54:16.649Z,99.99
2019-02-12T08:55:16.585Z,99.99
2019-02-12T08:56:16.537Z,99.99
2019-02-12T08:57:16.461Z,99.99
2019-02-12T08:58:16.383Z,99.99
2019-02-12T08:59:16.308Z,99.99
2019-02-12T09:00:16.241Z,99.99
2019-02-12T09:01:16.172Z,99.99
2019-02-12T09:02:16.164Z,99.99
2019-02-12T09:03:16.035Z,99.99
2019-02-12T09:04:15.972Z,99.99
2019-02-12T09:05:15.940Z,99.99
2019-02-12T09:06:15.840Z,99.99
2019-02-12T09:07:15.788Z,99.99
2019-02-12T09:08:15.698Z,99.99
2019-02-12T09:09:15.652Z,99.99
2019-02-12T09:10:15.585Z,99.99
2019-02-12T09:11:15.498Z,99.99
2019-02-12T09:12:15.439Z,99.99
2019-02-12T09:13:15.372Z,99.99
2019-02-12T09:14:15.288Z,99.99
2019-02-12T09:15:15.217Z,99.99
2019-02-12T09:16:15.152Z,99.99
2019-02-12T09:17:15.084Z,99.99
2019-02-12T09:18:15.015Z,99.99
2019-02-12T09:19:14.950Z,99.99
2019-02-12T09:20:14.886Z,99.99
2019-02-12T09:21:14.819Z,99.99
2019-02-12T09:22:14.749Z,99.99
2019-02-12T09:23:14.677Z,99.99
2019-02-12T09:24:14.615Z,99.99
2019-02-12T09:25:14.554Z,99.99
2019-02-12T09:26:14.473Z,99.99
2019-02-12T09:27:14.403Z,99.99
2019-02-12T09:28:14.370Z,99.99
2019-02-12T09:29:14.277Z,99.99
2019-02-12T09:30:14.229Z,99.99
2019-02-12T09:31:14.130Z,99.99
2019-02-12T09:32:14.072Z,99.99
2019-02-12T09:33:14.006Z,99.99
2019-02-12T09:34:13.931Z,99.99
2019-02-12T09:35:13.861Z,99.99
2019-02-12T09:36:13.797Z,99.99
2019-02-12T09:37:13.734Z,99.99
2019-02-12T09:38:13.663Z,99.99
2019-02-12T09:39:13.616Z,99.99
2019-02-12T09:40:19.225Z,99.99
2019-02-12T09:41:13.453Z,99.99
2019-02-12T09:42:13.385Z,99.99
2019-02-12T09:43:13.357Z,99.99
2019-02-12T09:44:13.246Z,99.99
2019-02-12T09:45:13.181Z,99.99
2019-02-12T09:46:13.118Z,99.99
2019-02-12T09:47:13.047Z,99.99
2019-02-12T09:48:12.985Z,99.99
2019-02-12T09:49:12.913Z,99.99
2019-02-12T09:50:12.858Z,99.99
2019-02-12T09:51:12.778Z,99.99
2019-02-12T09:52:12.707Z,99.99
2019-02-12T09:53:12.640Z,99.99
2019-02-12T09:54:12.610Z,99.99
2019-02-12T09:55:12.507Z,99.99
2019-02-12T09:56:12.437Z,99.99
2019-02-12T09:57:12.372Z,99.99
2019-02-12T09:58:12.312Z,99.99
2019-02-12T09:59:12.229Z,99.99
2019-02-12T10:00:12.181Z,99.99
2019-02-12T10:01:12.097Z,99.99
2019-02-12T10:02:12.043Z,99.99
2019-02-12T10:03:11.963Z,99.99
2019-02-12T10:04:11.899Z,99.99
2019-02-12T10:05:11.826Z,99.99
2019-02-12T10:06:21.089Z,99.99
2019-02-12T10:07:11.706Z,99.99
2019-02-12T10:08:11.624Z,99.99
2019-02-12T10:09:11.563Z,99.99
2019-02-12T10:10:11.499Z,99.99
2019-02-12T10:11:11.438Z,99.99
2019-02-12T10:12:11.346Z,99.99
2019-02-12T10:13:11.283Z,99.99
2019-02-12T10:14:11.247Z,99.99
2019-02-12T10:15:11.158Z,99.99
2019-02-12T10:16:11.090Z,99.99
2019-02-12T10:17:11.011Z,99.99
2019-02-12T10:18:10.974Z,99.99
2019-02-12T10:19:10.915Z,99.99
2019-02-12T10:20:10.823Z,99.99
2019-02-12T10:21:10.739Z,99.99
2019-02-12T10:22:10.672Z,99.99
2019-02-12T10:23:10.606Z,99.99
2019-02-12T10:24:20.753Z,99.99
2019-02-12T10:25:10.466Z,99.99
2019-02-12T10:26:10.399Z,99.99
2019-02-12T10:27:10.355Z,99.99
2019-02-12T10:28:10.280Z,99.99
2019-02-12T10:29:10.217Z,99.99
2019-02-12T10:30:10.142Z,99.99
2019-02-12T10:31:10.088Z,99.99
2019-02-12T10:32:09.990Z,99.99
2019-02-12T10:33:09.931Z,99.99
2019-02-12T10:34:09.856Z,99.99
2019-02-12T10:35:09.800Z,99.99
2019-02-12T10:36:09.716Z,99.99
2019-02-12T10:37:09.656Z,99.99
2019-02-12T10:39:09.527Z,99.99
2019-02-12T10:40:09.447Z,99.99
2019-02-12T10:41:09.377Z,99.99
2019-02-12T10:42:09.312Z,99.99
2019-02-12T10:43:09.241Z,99.99
2019-02-12T10:44:09.176Z,99.99
2019-02-12T10:45:09.123Z,99.99
2019-02-12T10:46:09.046Z,99.99
2019-02-12T10:47:08.988Z,99.99
2019-02-12T10:48:08.898Z,99.99
2019-02-12T10:49:08.863Z,99.99
2019-02-12T10:50:08.763Z,99.99
2019-02-12T10:51:08.690Z,99.99
2019-02-12T10:52:08.627Z,99.99
2019-02-12T10:53:09.026Z,99.99
2019-02-12T10:54:08.492Z,99.99
2019-02-12T10:55:08.422Z,99.99
2019-02-12T10:56:08.398Z,99.99
2019-02-12T10:57:08.304Z,99.99
2019-02-12T10:58:08.641Z,99.99
2019-02-12T10:59:08.154Z,99.99
2019-02-12T11:00:08.084Z,99.99
2019-02-12T11:01:08.028Z,99.99
2019-02-12T11:02:07.944Z,99.99
2019-02-12T11:03:07.879Z,99.99
2019-02-12T11:04:07.812Z,99.99
2019-02-12T11:05:07.747Z,99.99
2019-02-12T11:06:07.672Z,99.99
2019-02-12T11:07:07.604Z,99.99
2019-02-12T11:08:07.537Z,99.99
2019-02-12T11:09:07.496Z,99.99
2019-02-12T11:10:07.412Z,99.99
2019-02-12T11:11:07.341Z,99.99
2019-02-12T11:12:07.282Z,99.99
2019-02-12T11:13:07.199Z,99.99
2019-02-12T11:14:07.137Z,99.99
2019-02-12T11:15:07.067Z,99.99
2019-02-12T11:16:07.011Z,99.99
2019-02-12T11:17:06.925Z,99.99
2019-02-12T11:18:06.861Z,99.99
2019-02-12T11:19:06.794Z,99.99
2019-02-12T11:20:06.741Z,99.99
2019-02-12T11:21:11.817Z,99.99
2019-02-12T11:22:06.590Z,99.99
2019-02-12T11:23:06.523Z,99.99
2019-02-12T11:24:06.473Z,99.99
2019-02-12T11:25:06.468Z,99.99
2019-02-12T11:26:06.332Z,99.99
2019-02-12T11:27:06.264Z,99.99
2019-02-12T11:28:06.251Z,99.99
2019-02-12T11:29:06.119Z,99.99
2019-02-12T11:30:06.050Z,99.99
2019-02-12T11:31:06.000Z,99.99
2019-02-12T11:32:05.915Z,99.99
2019-02-12T11:33:05.847Z,99.99
2019-02-12T11:34:05.779Z,99.99
2019-02-12T11:35:05.716Z,99.99
2019-02-12T11:36:05.668Z,99.99
2019-02-12T11:37:05.582Z,99.25
2019-02-12T11:38:05.525Z,98.68
2019-02-12T11:39:05.444Z,96.97
2019-02-12T11:40:05.377Z,96.31
2019-02-12T11:41:05.307Z,96.12
2019-02-12T11:42:05.250Z,95.17
2019-02-12T11:43:05.196Z,95.93
2019-02-12T11:44:05.107Z,94.79
2019-02-12T11:45:05.058Z,94.70
2019-02-12T11:46:04.975Z,95.03
2019-02-12T11:47:04.906Z,95.79
2019-02-12T11:48:04.839Z,95.22
2019-02-12T11:49:04.780Z,95.69
2019-02-12T11:50:04.701Z,95.03
2019-02-12T11:51:04.638Z,93.61
2019-02-12T11:52:04.570Z,90.95
2019-02-12T11:53:04.509Z,91.14
2019-02-12T11:54:04.441Z,90.10
2019-02-12T11:55:04.378Z,89.43
2019-02-12T11:56:04.306Z,89.62
2019-02-12T11:57:04.229Z,87.82
2019-02-12T11:58:04.165Z,85.83
2019-02-12T11:59:04.112Z,85.55
2019-02-12T12:00:04.047Z,85.74
2019-02-12T12:01:03.962Z,86.68
2019-02-12T12:02:03.894Z,86.59
2019-02-12T12:03:03.830Z,86.87
2019-02-12T12:04:03.767Z,87.35
2019-02-12T12:05:03.692Z,86.11
2019-02-12T12:06:03.627Z,83.46
2019-02-12T12:07:03.565Z,82.70
2019-02-12T12:08:03.494Z,82.79
2019-02-12T12:09:03.427Z,83.74
2019-02-12T12:10:03.363Z,83.74
2019-02-12T12:11:03.293Z,84.50
2019-02-12T12:12:03.221Z,82.79
2019-02-12T12:13:03.159Z,82.51
2019-02-12T12:14:03.090Z,82.60
2019-02-12T12:15:03.023Z,81.66
2019-02-12T12:16:02.955Z,81.37
2019-02-12T12:17:02.889Z,80.71
2019-02-12T12:18:02.821Z,80.24
2019-02-12T12:19:02.755Z,81.47
2019-02-12T12:20:02.690Z,81.66
2019-02-12T12:21:02.622Z,82.42
2019-02-12T12:22:02.567Z,82.42
2019-02-12T12:23:02.493Z,81.66
2019-02-12T12:24:02.436Z,80.90
2019-02-12T12:25:02.369Z,80.99
2019-02-12T12:26:02.288Z,80.04
2019-02-12T12:27:02.219Z,79.76
2019-02-12T12:28:02.153Z,80.24
2019-02-12T12:29:02.087Z,79.19
2019-02-12T12:30:02.014Z,80.33
2019-02-12T12:31:01.956Z,79.19
2019-02-12T12:32:01.884Z,79.57
2019-02-12T12:33:01.820Z,79.10
2019-02-12T12:34:01.769Z,79.47
2019-02-12T12:35:01.687Z,80.33
2019-02-12T12:36:01.635Z,80.04
2019-02-12T12:37:01.545Z,80.14
2019-02-12T12:38:01.481Z,81.75
2019-02-12T12:39:01.418Z,81.75
2019-02-12T12:40:01.362Z,81.47
2019-02-12T12:41:01.286Z,81.47
2019-02-12T12:42:01.221Z,81.47
2019-02-12T12:43:01.174Z,82.51
2019-02-12T12:44:01.081Z,82.79
2019-02-12T12:45:01.016Z,82.70
2019-02-12T12:46:00.948Z,82.42
2019-02-12T12:47:00.892Z,81.94
2019-02-12T12:48:00.815Z,82.60
2019-02-12T12:49:00.746Z,82.70
2019-02-12T12:50:00.680Z,82.98
2019-02-12T12:51:00.626Z,82.79
2019-02-12T12:52:00.558Z,82.23
2019-02-12T12:53:00.487Z,82.51